Pagrindinis puslapis
METAR-TAF:

METAR-TAF

Oro uostai :

San Paulas-Congonhas, San Paulas, Brazilija

platuma: 23-37S, ilguma: 046-39W, Aukštis: 803 m

Dabartinis oras

Ataskaita buvo paskelbta 12 minutes, ne 00:00 UTC
Vėjas 7 kt iš Pietų/Pietryčių
Temperatūra 22°C
Drėgmė 60%
Slėgis 1018 hPa
Matomumas: 9000 m

METAR: SBSP 200000Z 15007KT 9000 NSC 22/14 Q1018

Laikas: 21:12 (00:12 UTC)

Prognozė

Ataskaita buvo paskelbta 7 valandos ir 2 minutes, ne 17:10 UTC
Prognozė galioja nuo 20 metu 00 UTC su 20 metu 12 UTC
Vėjas 10 kt iš Pietų/Pietryčių
Matomumas: 8000 m
Su prošvaistėmis ne aukštis 1100 ft
Tapsmas
nuo 20 metu 01 UTC su 20 metu 03 UTC
Apsiniaukę ne aukštis 600 ft
Tikimybė 40%
nuo 20 metu 08 UTC su 20 metu 12 UTC
Vėjas 10 kt iš Pietų
Matomumas: 3000 m
Apsiniaukę ne aukštis 500 ft
lietus, rūkana

TAF: SBSP 191710Z 2000/2012 16010KT 8000 BKN011 TX21/2000Z TN17/2009Z BECMG 2001/2003 OVC006 PROB40 2008/2012 19010KT 3000 RA BR OVC005 RMK PGF

Orai ataskaitas ir orų prognozės (METAR, TAF).

turimą stotys yra geltonos ir raudonos taškus žemėlapyje.

Perkelti pele per norėdami pamatyti stoties vardą.

Tada spustelėkite, norėdami matyti oro stebėjimo ir prognozės.

Norėdami pakeisti žemėlapį: spustelėkite ant žalios mygtukų su juodo kryžiaus žemyn,; žalią mygtuką su brūkšneliu, jei norite nutolinti; arba žalių rodyklių gretimoms žemėlapius.


METAR-TAF: